sensor_id;sensor_type;location;lat;lon;timestamp;P1;durP1;ratioP1;P2;durP2;ratioP2
65691;SDS011;52411;52.716;6.696;2023-01-24T00:01:14;34.95;;;16.10;;
65691;SDS011;52411;52.716;6.696;2023-01-24T00:03:39;37.85;;;16.58;;
65691;SDS011;52411;52.716;6.696;2023-01-24T00:06:05;33.92;;;16.17;;
65691;SDS011;52411;52.716;6.696;2023-01-24T00:08:31;35.67;;;16.20;;
65691;SDS011;52411;52.716;6.696;2023-01-24T00:11:00;33.22;;;16.23;;
65691;SDS011;52411;52.716;6.696;2023-01-24T00:13:27;33.83;;;16.77;;
65691;SDS011;52411;52.716;6.696;2023-01-24T00:16:13;36.30;;;16.63;;
65691;SDS011;52411;52.716;6.696;2023-01-24T00:18:40;35.25;;;16.20;;
65691;SDS011;52411;52.716;6.696;2023-01-24T00:21:07;38.50;;;16.55;;
65691;SDS011;52411;52.716;6.696;2023-01-24T00:23:37;35.28;;;16.42;;
65691;SDS011;52411;52.716;6.696;2023-01-24T00:26:03;33.78;;;16.83;;
65691;SDS011;52411;52.716;6.696;2023-01-24T00:28:29;34.78;;;17.15;;
65691;SDS011;52411;52.716;6.696;2023-01-24T00:30:55;35.88;;;16.52;;
65691;SDS011;52411;52.716;6.696;2023-01-24T00:33:20;33.40;;;16.25;;
65691;SDS011;52411;52.716;6.696;2023-01-24T00:35:46;38.67;;;17.13;;
65691;SDS011;52411;52.716;6.696;2023-01-24T00:38:11;35.15;;;17.02;;
65691;SDS011;52411;52.716;6.696;2023-01-24T00:40:37;40.28;;;17.33;;
65691;SDS011;52411;52.716;6.696;2023-01-24T00:43:02;39.63;;;17.65;;
65691;SDS011;52411;52.716;6.696;2023-01-24T00:45:28;34.55;;;15.95;;
65691;SDS011;52411;52.716;6.696;2023-01-24T00:47:54;33.13;;;16.55;;
65691;SDS011;52411;52.716;6.696;2023-01-24T00:50:20;35.78;;;17.63;;
65691;SDS011;52411;52.716;6.696;2023-01-24T00:52:45;39.33;;;16.85;;
65691;SDS011;52411;52.716;6.696;2023-01-24T00:55:11;37.80;;;16.85;;
65691;SDS011;52411;52.716;6.696;2023-01-24T00:57:36;35.85;;;16.30;;
65691;SDS011;52411;52.716;6.696;2023-01-24T01:00:02;33.20;;;16.27;;
65691;SDS011;52411;52.716;6.696;2023-01-24T01:02:28;32.90;;;15.60;;
65691;SDS011;52411;52.716;6.696;2023-01-24T01:04:54;39.80;;;16.40;;
65691;SDS011;52411;52.716;6.696;2023-01-24T01:07:19;32.13;;;16.33;;
65691;SDS011;52411;52.716;6.696;2023-01-24T01:09:46;31.90;;;14.70;;
65691;SDS011;52411;52.716;6.696;2023-01-24T01:12:12;31.17;;;15.27;;
65691;SDS011;52411;52.716;6.696;2023-01-24T01:14:38;33.17;;;15.45;;
65691;SDS011;52411;52.716;6.696;2023-01-24T01:17:03;34.88;;;15.40;;
65691;SDS011;52411;52.716;6.696;2023-01-24T01:19:29;33.15;;;15.15;;
65691;SDS011;52411;52.716;6.696;2023-01-24T01:21:54;29.17;;;14.77;;
65691;SDS011;52411;52.716;6.696;2023-01-24T01:24:20;29.85;;;14.73;;
65691;SDS011;52411;52.716;6.696;2023-01-24T01:26:46;31.35;;;15.32;;
65691;SDS011;52411;52.716;6.696;2023-01-24T01:29:11;28.88;;;13.65;;
65691;SDS011;52411;52.716;6.696;2023-01-24T01:31:37;32.17;;;15.10;;
65691;SDS011;52411;52.716;6.696;2023-01-24T01:34:02;30.48;;;14.50;;
65691;SDS011;52411;52.716;6.696;2023-01-24T01:36:28;31.15;;;15.18;;
65691;SDS011;52411;52.716;6.696;2023-01-24T01:38:53;31.73;;;14.65;;
65691;SDS011;52411;52.716;6.696;2023-01-24T01:41:19;32.28;;;14.63;;
65691;SDS011;52411;52.716;6.696;2023-01-24T01:43:45;30.25;;;15.23;;
65691;SDS011;52411;52.716;6.696;2023-01-24T01:46:36;32.80;;;14.88;;
65691;SDS011;52411;52.716;6.696;2023-01-24T01:49:08;32.47;;;14.88;;
65691;SDS011;52411;52.716;6.696;2023-01-24T01:51:44;30.25;;;13.95;;
65691;SDS011;52411;52.716;6.696;2023-01-24T01:54:17;30.40;;;15.57;;
65691;SDS011;52411;52.716;6.696;2023-01-24T01:56:57;33.65;;;15.27;;
65691;SDS011;52411;52.716;6.696;2023-01-24T01:59:29;32.35;;;14.88;;
65691;SDS011;52411;52.716;6.696;2023-01-24T02:01:59;27.95;;;13.77;;
65691;SDS011;52411;52.716;6.696;2023-01-24T02:04:28;28.75;;;13.68;;
65691;SDS011;52411;52.716;6.696;2023-01-24T02:07:02;29.75;;;14.65;;
65691;SDS011;52411;52.716;6.696;2023-01-24T02:09:33;27.35;;;13.57;;
65691;SDS011;52411;52.716;6.696;2023-01-24T02:12:04;28.65;;;12.93;;
65691;SDS011;52411;52.716;6.696;2023-01-24T02:14:34;29.70;;;14.00;;
65691;SDS011;52411;52.716;6.696;2023-01-24T02:17:20;26.73;;;12.70;;
65691;SDS011;52411;52.716;6.696;2023-01-24T02:22:39;23.48;;;12.00;;
65691;SDS011;52411;52.716;6.696;2023-01-24T02:27:44;25.95;;;12.70;;
65691;SDS011;52411;52.716;6.696;2023-01-24T02:30:09;25.95;;;13.13;;
65691;SDS011;52411;52.716;6.696;2023-01-24T02:32:35;25.20;;;13.02;;
65691;SDS011;52411;52.716;6.696;2023-01-24T02:35:01;23.58;;;12.38;;
65691;SDS011;52411;52.716;6.696;2023-01-24T02:37:28;26.70;;;12.43;;
65691;SDS011;52411;52.716;6.696;2023-01-24T02:47:43;25.45;;;11.82;;
65691;SDS011;52411;52.716;6.696;2023-01-24T02:50:11;25.73;;;12.93;;
65691;SDS011;52411;52.716;6.696;2023-01-24T02:52:37;24.25;;;12.73;;
65691;SDS011;52411;52.716;6.696;2023-01-24T02:55:22;24.75;;;12.57;;
65691;SDS011;52411;52.716;6.696;2023-01-24T02:57:47;29.65;;;12.45;;
65691;SDS011;52411;52.716;6.696;2023-01-24T03:00:35;23.67;;;12.90;;
65691;SDS011;52411;52.716;6.696;2023-01-24T03:03:03;24.80;;;12.63;;
65691;SDS011;52411;52.716;6.696;2023-01-24T03:05:32;22.92;;;11.55;;
65691;SDS011;52411;52.716;6.696;2023-01-24T03:08:07;21.10;;;11.10;;
65691;SDS011;52411;52.716;6.696;2023-01-24T03:10:33;24.90;;;11.80;;
65691;SDS011;52411;52.716;6.696;2023-01-24T03:12:59;21.25;;;11.40;;
65691;SDS011;52411;52.716;6.696;2023-01-24T03:15:44;22.45;;;11.48;;
65691;SDS011;52411;52.716;6.696;2023-01-24T03:18:28;19.90;;;10.73;;
65691;SDS011;52411;52.716;6.696;2023-01-24T03:21:12;21.67;;;10.63;;
65691;SDS011;52411;52.716;6.696;2023-01-24T03:23:57;20.25;;;10.35;;
65691;SDS011;52411;52.716;6.696;2023-01-24T03:26:41;20.52;;;10.43;;
65691;SDS011;52411;52.716;6.696;2023-01-24T03:29:25;20.05;;;10.43;;
65691;SDS011;52411;52.716;6.696;2023-01-24T03:32:09;19.02;;;9.60;;
65691;SDS011;52411;52.716;6.696;2023-01-24T03:34:54;22.83;;;10.75;;
65691;SDS011;52411;52.716;6.696;2023-01-24T03:37:20;21.58;;;10.25;;
65691;SDS011;52411;52.716;6.696;2023-01-24T03:40:07;22.10;;;10.75;;
65691;SDS011;52411;52.716;6.696;2023-01-24T03:42:37;19.42;;;9.80;;
65691;SDS011;52411;52.716;6.696;2023-01-24T03:45:12;18.33;;;9.63;;
65691;SDS011;52411;52.716;6.696;2023-01-24T03:47:50;19.80;;;10.73;;
65691;SDS011;52411;52.716;6.696;2023-01-24T03:50:24;20.83;;;10.27;;
65691;SDS011;52411;52.716;6.696;2023-01-24T03:53:13;20.45;;;10.52;;
65691;SDS011;52411;52.716;6.696;2023-01-24T03:55:39;22.42;;;10.75;;
65691;SDS011;52411;52.716;6.696;2023-01-24T03:58:06;20.45;;;10.30;;
65691;SDS011;52411;52.716;6.696;2023-01-24T04:00:33;20.27;;;9.85;;
65691;SDS011;52411;52.716;6.696;2023-01-24T04:02:59;19.52;;;10.07;;
65691;SDS011;52411;52.716;6.696;2023-01-24T04:05:25;19.42;;;10.07;;
65691;SDS011;52411;52.716;6.696;2023-01-24T04:07:53;19.10;;;9.70;;
65691;SDS011;52411;52.716;6.696;2023-01-24T04:10:19;18.95;;;9.23;;
65691;SDS011;52411;52.716;6.696;2023-01-24T04:12:45;21.65;;;10.15;;
65691;SDS011;52411;52.716;6.696;2023-01-24T04:15:15;17.65;;;9.00;;
65691;SDS011;52411;52.716;6.696;2023-01-24T04:17:45;16.90;;;9.18;;
65691;SDS011;52411;52.716;6.696;2023-01-24T04:20:12;18.58;;;8.93;;
65691;SDS011;52411;52.716;6.696;2023-01-24T04:22:38;19.73;;;9.48;;
65691;SDS011;52411;52.716;6.696;2023-01-24T04:25:04;16.95;;;9.00;;
65691;SDS011;52411;52.716;6.696;2023-01-24T04:27:30;18.70;;;9.00;;
65691;SDS011;52411;52.716;6.696;2023-01-24T04:29:56;13.90;;;8.43;;
65691;SDS011;52411;52.716;6.696;2023-01-24T04:32:22;17.85;;;9.10;;
65691;SDS011;52411;52.716;6.696;2023-01-24T04:34:47;17.00;;;9.05;;
65691;SDS011;52411;52.716;6.696;2023-01-24T04:37:13;18.27;;;9.15;;
65691;SDS011;52411;52.716;6.696;2023-01-24T04:39:39;15.95;;;8.93;;
65691;SDS011;52411;52.716;6.696;2023-01-24T04:42:04;17.05;;;9.20;;
65691;SDS011;52411;52.716;6.696;2023-01-24T04:44:31;17.63;;;9.25;;
65691;SDS011;52411;52.716;6.696;2023-01-24T04:46:57;16.52;;;8.95;;
65691;SDS011;52411;52.716;6.696;2023-01-24T04:49:24;16.85;;;9.50;;
65691;SDS011;52411;52.716;6.696;2023-01-24T04:51:50;19.45;;;9.80;;
65691;SDS011;52411;52.716;6.696;2023-01-24T04:54:16;17.88;;;9.23;;
65691;SDS011;52411;52.716;6.696;2023-01-24T04:56:42;17.65;;;8.85;;
65691;SDS011;52411;52.716;6.696;2023-01-24T04:59:09;14.80;;;8.70;;
65691;SDS011;52411;52.716;6.696;2023-01-24T05:01:37;17.98;;;9.25;;
65691;SDS011;52411;52.716;6.696;2023-01-24T05:04:02;16.42;;;9.13;;
65691;SDS011;52411;52.716;6.696;2023-01-24T05:06:29;16.23;;;9.10;;
65691;SDS011;52411;52.716;6.696;2023-01-24T05:08:56;16.67;;;9.48;;
65691;SDS011;52411;52.716;6.696;2023-01-24T05:11:22;17.45;;;9.18;;
65691;SDS011;52411;52.716;6.696;2023-01-24T05:13:48;16.40;;;9.52;;
65691;SDS011;52411;52.716;6.696;2023-01-24T05:16:14;14.90;;;8.77;;
65691;SDS011;52411;52.716;6.696;2023-01-24T05:18:40;22.90;;;9.75;;
65691;SDS011;52411;52.716;6.696;2023-01-24T05:21:07;19.15;;;9.52;;
65691;SDS011;52411;52.716;6.696;2023-01-24T05:23:35;17.38;;;9.48;;
65691;SDS011;52411;52.716;6.696;2023-01-24T05:26:01;16.70;;;9.45;;
65691;SDS011;52411;52.716;6.696;2023-01-24T05:28:27;18.90;;;9.85;;
65691;SDS011;52411;52.716;6.696;2023-01-24T05:30:53;16.90;;;9.32;;
65691;SDS011;52411;52.716;6.696;2023-01-24T05:33:26;17.52;;;9.20;;
65691;SDS011;52411;52.716;6.696;2023-01-24T05:35:58;21.98;;;10.43;;
65691;SDS011;52411;52.716;6.696;2023-01-24T05:38:29;20.50;;;10.68;;
65691;SDS011;52411;52.716;6.696;2023-01-24T05:40:58;21.60;;;11.15;;
65691;SDS011;52411;52.716;6.696;2023-01-24T05:43:25;18.93;;;9.47;;
65691;SDS011;52411;52.716;6.696;2023-01-24T05:45:51;20.15;;;10.20;;
65691;SDS011;52411;52.716;6.696;2023-01-24T05:48:24;18.27;;;10.10;;
65691;SDS011;52411;52.716;6.696;2023-01-24T05:50:55;21.08;;;10.02;;
65691;SDS011;52411;52.716;6.696;2023-01-24T05:55:56;17.50;;;9.82;;
65691;SDS011;52411;52.716;6.696;2023-01-24T05:58:23;18.50;;;10.00;;
65691;SDS011;52411;52.716;6.696;2023-01-24T06:00:50;20.40;;;9.95;;
65691;SDS011;52411;52.716;6.696;2023-01-24T06:03:15;17.70;;;9.65;;
65691;SDS011;52411;52.716;6.696;2023-01-24T06:05:45;20.25;;;10.43;;
65691;SDS011;52411;52.716;6.696;2023-01-24T06:08:15;18.42;;;10.13;;
65691;SDS011;52411;52.716;6.696;2023-01-24T06:10:41;21.45;;;10.60;;
65691;SDS011;52411;52.716;6.696;2023-01-24T06:13:07;21.35;;;11.10;;
65691;SDS011;52411;52.716;6.696;2023-01-24T06:15:33;20.38;;;11.02;;
65691;SDS011;52411;52.716;6.696;2023-01-24T06:17:59;21.52;;;11.43;;
65691;SDS011;52411;52.716;6.696;2023-01-24T06:20:25;20.15;;;11.15;;
65691;SDS011;52411;52.716;6.696;2023-01-24T06:22:51;21.27;;;10.95;;
65691;SDS011;52411;52.716;6.696;2023-01-24T06:25:28;18.67;;;10.13;;
65691;SDS011;52411;52.716;6.696;2023-01-24T06:27:54;19.55;;;9.82;;
65691;SDS011;52411;52.716;6.696;2023-01-24T06:30:20;21.92;;;10.52;;
65691;SDS011;52411;52.716;6.696;2023-01-24T06:32:54;19.83;;;11.25;;
65691;SDS011;52411;52.716;6.696;2023-01-24T06:38:49;19.67;;;10.10;;
65691;SDS011;52411;52.716;6.696;2023-01-24T06:41:15;19.05;;;10.52;;
65691;SDS011;52411;52.716;6.696;2023-01-24T06:43:45;20.77;;;11.07;;
65691;SDS011;52411;52.716;6.696;2023-01-24T06:46:11;21.30;;;11.43;;
65691;SDS011;52411;52.716;6.696;2023-01-24T06:48:38;20.42;;;11.05;;
65691;SDS011;52411;52.716;6.696;2023-01-24T06:51:08;19.15;;;10.65;;
65691;SDS011;52411;52.716;6.696;2023-01-24T06:53:37;17.50;;;10.18;;
65691;SDS011;52411;52.716;6.696;2023-01-24T06:56:02;19.30;;;11.13;;
65691;SDS011;52411;52.716;6.696;2023-01-24T06:58:28;19.38;;;10.48;;
65691;SDS011;52411;52.716;6.696;2023-01-24T07:00:54;21.38;;;11.20;;
65691;SDS011;52411;52.716;6.696;2023-01-24T07:03:19;20.63;;;10.60;;
65691;SDS011;52411;52.716;6.696;2023-01-24T07:05:45;21.88;;;11.35;;
65691;SDS011;52411;52.716;6.696;2023-01-24T07:08:12;23.77;;;10.88;;
65691;SDS011;52411;52.716;6.696;2023-01-24T07:10:38;22.08;;;10.93;;
65691;SDS011;52411;52.716;6.696;2023-01-24T07:13:06;19.85;;;11.52;;
65691;SDS011;52411;52.716;6.696;2023-01-24T07:15:32;19.48;;;10.77;;
65691;SDS011;52411;52.716;6.696;2023-01-24T07:18:08;21.13;;;11.13;;
65691;SDS011;52411;52.716;6.696;2023-01-24T07:20:36;20.80;;;10.85;;
65691;SDS011;52411;52.716;6.696;2023-01-24T07:23:02;21.05;;;10.60;;
65691;SDS011;52411;52.716;6.696;2023-01-24T07:25:27;18.10;;;10.35;;
65691;SDS011;52411;52.716;6.696;2023-01-24T07:27:54;19.85;;;10.70;;
65691;SDS011;52411;52.716;6.696;2023-01-24T07:30:19;21.45;;;10.90;;
65691;SDS011;52411;52.716;6.696;2023-01-24T07:32:45;19.50;;;10.35;;
65691;SDS011;52411;52.716;6.696;2023-01-24T07:35:11;21.67;;;11.85;;
65691;SDS011;52411;52.716;6.696;2023-01-24T07:37:37;19.75;;;10.25;;
65691;SDS011;52411;52.716;6.696;2023-01-24T07:40:03;20.27;;;11.38;;
65691;SDS011;52411;52.716;6.696;2023-01-24T07:42:29;20.75;;;11.70;;
65691;SDS011;52411;52.716;6.696;2023-01-24T07:44:54;18.13;;;10.73;;
65691;SDS011;52411;52.716;6.696;2023-01-24T07:47:21;19.52;;;10.55;;
65691;SDS011;52411;52.716;6.696;2023-01-24T07:49:48;21.00;;;10.98;;
65691;SDS011;52411;52.716;6.696;2023-01-24T07:52:13;21.50;;;11.35;;
65691;SDS011;52411;52.716;6.696;2023-01-24T07:54:39;22.65;;;11.27;;
65691;SDS011;52411;52.716;6.696;2023-01-24T07:57:05;21.92;;;11.77;;
65691;SDS011;52411;52.716;6.696;2023-01-24T07:59:30;22.13;;;11.68;;
65691;SDS011;52411;52.716;6.696;2023-01-24T08:01:56;19.67;;;11.38;;
65691;SDS011;52411;52.716;6.696;2023-01-24T08:04:21;21.00;;;11.05;;
65691;SDS011;52411;52.716;6.696;2023-01-24T08:06:47;22.73;;;11.85;;
65691;SDS011;52411;52.716;6.696;2023-01-24T08:09:31;23.20;;;12.20;;
65691;SDS011;52411;52.716;6.696;2023-01-24T08:11:56;21.45;;;11.60;;
65691;SDS011;52411;52.716;6.696;2023-01-24T08:14:22;21.55;;;11.57;;
65691;SDS011;52411;52.716;6.696;2023-01-24T08:16:48;26.02;;;13.00;;
65691;SDS011;52411;52.716;6.696;2023-01-24T08:19:14;23.33;;;11.98;;
65691;SDS011;52411;52.716;6.696;2023-01-24T08:21:40;23.27;;;11.55;;
65691;SDS011;52411;52.716;6.696;2023-01-24T08:24:06;22.70;;;12.88;;
65691;SDS011;52411;52.716;6.696;2023-01-24T08:26:31;26.15;;;12.45;;
65691;SDS011;52411;52.716;6.696;2023-01-24T08:28:57;22.08;;;12.52;;
65691;SDS011;52411;52.716;6.696;2023-01-24T08:31:23;22.73;;;12.57;;
65691;SDS011;52411;52.716;6.696;2023-01-24T08:33:48;21.92;;;11.55;;
65691;SDS011;52411;52.716;6.696;2023-01-24T08:36:14;22.33;;;12.32;;
65691;SDS011;52411;52.716;6.696;2023-01-24T08:38:39;25.05;;;12.82;;
65691;SDS011;52411;52.716;6.696;2023-01-24T08:41:05;24.10;;;12.40;;
65691;SDS011;52411;52.716;6.696;2023-01-24T08:43:32;21.95;;;12.65;;
65691;SDS011;52411;52.716;6.696;2023-01-24T08:45:58;21.80;;;11.85;;
65691;SDS011;52411;52.716;6.696;2023-01-24T08:48:23;20.48;;;11.75;;
65691;SDS011;52411;52.716;6.696;2023-01-24T08:50:49;20.08;;;11.45;;
65691;SDS011;52411;52.716;6.696;2023-01-24T08:53:15;24.52;;;13.93;;
65691;SDS011;52411;52.716;6.696;2023-01-24T08:55:40;21.48;;;11.88;;
65691;SDS011;52411;52.716;6.696;2023-01-24T08:58:06;21.98;;;11.98;;
65691;SDS011;52411;52.716;6.696;2023-01-24T09:00:32;21.83;;;12.48;;
65691;SDS011;52411;52.716;6.696;2023-01-24T09:02:57;22.33;;;12.52;;
65691;SDS011;52411;52.716;6.696;2023-01-24T09:05:25;22.73;;;12.48;;
65691;SDS011;52411;52.716;6.696;2023-01-24T09:07:52;22.27;;;12.48;;
65691;SDS011;52411;52.716;6.696;2023-01-24T09:10:17;24.88;;;12.63;;
65691;SDS011;52411;52.716;6.696;2023-01-24T09:12:43;22.60;;;11.95;;
65691;SDS011;52411;52.716;6.696;2023-01-24T09:15:09;23.05;;;11.35;;
65691;SDS011;52411;52.716;6.696;2023-01-24T09:17:36;22.00;;;11.68;;
65691;SDS011;52411;52.716;6.696;2023-01-24T09:20:02;22.02;;;12.52;;
65691;SDS011;52411;52.716;6.696;2023-01-24T09:22:28;20.67;;;11.82;;
65691;SDS011;52411;52.716;6.696;2023-01-24T09:24:54;20.85;;;10.88;;
65691;SDS011;52411;52.716;6.696;2023-01-24T09:27:19;20.05;;;10.55;;
65691;SDS011;52411;52.716;6.696;2023-01-24T09:29:45;19.77;;;11.40;;
65691;SDS011;52411;52.716;6.696;2023-01-24T09:32:10;18.90;;;11.23;;
65691;SDS011;52411;52.716;6.696;2023-01-24T09:34:38;20.40;;;11.90;;
65691;SDS011;52411;52.716;6.696;2023-01-24T09:37:05;20.95;;;11.25;;
65691;SDS011;52411;52.716;6.696;2023-01-24T09:39:31;21.10;;;11.43;;
65691;SDS011;52411;52.716;6.696;2023-01-24T09:41:58;20.83;;;11.02;;
65691;SDS011;52411;52.716;6.696;2023-01-24T09:47:15;19.58;;;11.57;;
65691;SDS011;52411;52.716;6.696;2023-01-24T09:49:52;23.10;;;11.95;;
65691;SDS011;52411;52.716;6.696;2023-01-24T09:52:31;20.90;;;11.23;;
65691;SDS011;52411;52.716;6.696;2023-01-24T09:55:21;21.90;;;11.45;;
65691;SDS011;52411;52.716;6.696;2023-01-24T10:00:41;21.30;;;11.38;;
65691;SDS011;52411;52.716;6.696;2023-01-24T10:03:18;20.98;;;11.98;;
65691;SDS011;52411;52.716;6.696;2023-01-24T10:05:52;19.83;;;11.30;;
65691;SDS011;52411;52.716;6.696;2023-01-24T10:08:25;19.42;;;11.35;;
65691;SDS011;52411;52.716;6.696;2023-01-24T10:13:55;19.63;;;10.82;;
65691;SDS011;52411;52.716;6.696;2023-01-24T10:24:12;19.58;;;11.35;;
65691;SDS011;52411;52.716;6.696;2023-01-24T10:26:49;23.23;;;11.88;;
65691;SDS011;52411;52.716;6.696;2023-01-24T10:37:15;21.65;;;11.23;;
65691;SDS011;52411;52.716;6.696;2023-01-24T10:39:45;18.58;;;11.45;;
65691;SDS011;52411;52.716;6.696;2023-01-24T10:42:22;18.95;;;11.35;;
65691;SDS011;52411;52.716;6.696;2023-01-24T10:44:54;21.52;;;11.32;;
65691;SDS011;52411;52.716;6.696;2023-01-24T10:47:39;22.45;;;12.15;;
65691;SDS011;52411;52.716;6.696;2023-01-24T10:50:13;20.70;;;11.32;;
65691;SDS011;52411;52.716;6.696;2023-01-24T10:52:40;21.65;;;11.98;;
65691;SDS011;52411;52.716;6.696;2023-01-24T10:55:24;19.98;;;11.82;;
65691;SDS011;52411;52.716;6.696;2023-01-24T10:57:56;18.30;;;10.95;;
65691;SDS011;52411;52.716;6.696;2023-01-24T11:00:41;22.80;;;12.27;;
65691;SDS011;52411;52.716;6.696;2023-01-24T11:03:16;18.25;;;10.82;;
65691;SDS011;52411;52.716;6.696;2023-01-24T11:05:46;19.33;;;11.45;;
65691;SDS011;52411;52.716;6.696;2023-01-24T11:08:15;18.33;;;11.45;;
65691;SDS011;52411;52.716;6.696;2023-01-24T11:10:46;20.83;;;11.90;;
65691;SDS011;52411;52.716;6.696;2023-01-24T11:16:02;18.75;;;10.73;;
65691;SDS011;52411;52.716;6.696;2023-01-24T11:18:43;20.15;;;11.20;;
65691;SDS011;52411;52.716;6.696;2023-01-24T11:21:13;18.92;;;10.43;;
65691;SDS011;52411;52.716;6.696;2023-01-24T11:23:40;17.98;;;10.35;;
65691;SDS011;52411;52.716;6.696;2023-01-24T11:29:20;21.10;;;10.95;;
65691;SDS011;52411;52.716;6.696;2023-01-24T11:31:47;18.02;;;10.73;;
65691;SDS011;52411;52.716;6.696;2023-01-24T11:49:13;19.08;;;10.25;;
65691;SDS011;52411;52.716;6.696;2023-01-24T11:54:33;18.02;;;11.32;;
65691;SDS011;52411;52.716;6.696;2023-01-24T11:57:14;18.08;;;10.55;;
65691;SDS011;52411;52.716;6.696;2023-01-24T12:22:05;17.67;;;10.40;;
65691;SDS011;52411;52.716;6.696;2023-01-24T12:25:11;19.55;;;11.20;;
65691;SDS011;52411;52.716;6.696;2023-01-24T12:27:38;20.67;;;10.40;;
65691;SDS011;52411;52.716;6.696;2023-01-24T12:30:15;18.38;;;10.60;;
65691;SDS011;52411;52.716;6.696;2023-01-24T12:35:42;17.00;;;10.10;;
65691;SDS011;52411;52.716;6.696;2023-01-24T12:51:19;17.95;;;10.77;;
65691;SDS011;52411;52.716;6.696;2023-01-24T12:56:54;19.50;;;11.32;;
65691;SDS011;52411;52.716;6.696;2023-01-24T12:59:25;17.00;;;10.27;;
65691;SDS011;52411;52.716;6.696;2023-01-24T13:04:50;19.75;;;10.93;;
65691;SDS011;52411;52.716;6.696;2023-01-24T13:12:42;19.02;;;10.85;;
65691;SDS011;52411;52.716;6.696;2023-01-24T13:32:38;20.65;;;10.65;;
65691;SDS011;52411;52.716;6.696;2023-01-24T13:34:49;20.42;;;11.00;;
65691;SDS011;52411;52.716;6.696;2023-01-24T13:37:23;19.02;;;10.77;;
65691;SDS011;52411;52.716;6.696;2023-01-24T13:42:39;19.95;;;11.02;;
65691;SDS011;52411;52.716;6.696;2023-01-24T13:54:00;18.02;;;10.27;;
65691;SDS011;52411;52.716;6.696;2023-01-24T13:56:31;17.38;;;10.18;;
65691;SDS011;52411;52.716;6.696;2023-01-24T13:59:10;19.58;;;10.07;;
65691;SDS011;52411;52.716;6.696;2023-01-24T14:01:43;17.40;;;10.43;;
65691;SDS011;52411;52.716;6.696;2023-01-24T14:04:10;17.73;;;10.60;;
65691;SDS011;52411;52.716;6.696;2023-01-24T14:06:42;17.00;;;10.52;;
65691;SDS011;52411;52.716;6.696;2023-01-24T14:09:16;18.92;;;11.23;;
65691;SDS011;52411;52.716;6.696;2023-01-24T14:11:52;19.60;;;11.95;;
65691;SDS011;52411;52.716;6.696;2023-01-24T14:14:30;18.08;;;10.48;;
65691;SDS011;52411;52.716;6.696;2023-01-24T14:20:17;18.58;;;10.93;;
65691;SDS011;52411;52.716;6.696;2023-01-24T14:22:47;16.63;;;10.63;;
65691;SDS011;52411;52.716;6.696;2023-01-24T14:33:54;25.27;;;11.45;;
65691;SDS011;52411;52.716;6.696;2023-01-24T14:36:30;22.10;;;11.90;;
65691;SDS011;52411;52.716;6.696;2023-01-24T14:39:15;19.02;;;11.30;;
65691;SDS011;52411;52.716;6.696;2023-01-24T14:41:43;20.00;;;11.63;;
65691;SDS011;52411;52.716;6.696;2023-01-24T14:46:57;21.17;;;12.10;;
65691;SDS011;52411;52.716;6.696;2023-01-24T14:49:32;19.40;;;11.10;;
65691;SDS011;52411;52.716;6.696;2023-01-24T14:54:26;17.92;;;11.05;;
65691;SDS011;52411;52.716;6.696;2023-01-24T14:56:52;19.30;;;11.00;;
65691;SDS011;52411;52.716;6.696;2023-01-24T14:59:18;23.58;;;11.80;;
65691;SDS011;52411;52.716;6.696;2023-01-24T15:01:48;21.30;;;11.63;;
65691;SDS011;52411;52.716;6.696;2023-01-24T15:07:01;19.60;;;10.43;;
65691;SDS011;52411;52.716;6.696;2023-01-24T15:09:31;21.00;;;11.73;;
65691;SDS011;52411;52.716;6.696;2023-01-24T15:12:10;20.13;;;11.68;;
65691;SDS011;52411;52.716;6.696;2023-01-24T15:14:46;18.77;;;11.18;;
65691;SDS011;52411;52.716;6.696;2023-01-24T15:17:17;20.67;;;11.82;;
65691;SDS011;52411;52.716;6.696;2023-01-24T15:19:47;18.55;;;10.95;;
65691;SDS011;52411;52.716;6.696;2023-01-24T15:22:20;19.55;;;11.32;;
65691;SDS011;52411;52.716;6.696;2023-01-24T15:24:48;22.52;;;11.18;;
65691;SDS011;52411;52.716;6.696;2023-01-24T15:30:26;20.17;;;11.70;;
65691;SDS011;52411;52.716;6.696;2023-01-24T15:32:49;18.42;;;11.50;;
65691;SDS011;52411;52.716;6.696;2023-01-24T15:35:22;19.10;;;10.85;;
65691;SDS011;52411;52.716;6.696;2023-01-24T15:40:52;17.92;;;10.77;;
65691;SDS011;52411;52.716;6.696;2023-01-24T15:54:32;20.42;;;11.15;;
65691;SDS011;52411;52.716;6.696;2023-01-24T15:56:59;25.35;;;11.75;;
65691;SDS011;52411;52.716;6.696;2023-01-24T15:59:28;22.75;;;11.70;;
65691;SDS011;52411;52.716;6.696;2023-01-24T16:01:54;23.90;;;12.60;;
65691;SDS011;52411;52.716;6.696;2023-01-24T16:04:20;21.50;;;11.90;;
65691;SDS011;52411;52.716;6.696;2023-01-24T16:06:51;24.23;;;11.48;;
65691;SDS011;52411;52.716;6.696;2023-01-24T16:09:16;19.48;;;11.32;;
65691;SDS011;52411;52.716;6.696;2023-01-24T16:11:43;20.38;;;11.70;;
65691;SDS011;52411;52.716;6.696;2023-01-24T16:14:12;21.67;;;12.18;;
65691;SDS011;52411;52.716;6.696;2023-01-24T16:16:41;24.63;;;12.50;;
65691;SDS011;52411;52.716;6.696;2023-01-24T16:19:14;28.13;;;13.30;;
65691;SDS011;52411;52.716;6.696;2023-01-24T16:21:41;24.42;;;12.35;;
65691;SDS011;52411;52.716;6.696;2023-01-24T16:24:07;25.65;;;12.55;;
65691;SDS011;52411;52.716;6.696;2023-01-24T16:26:33;28.45;;;13.70;;
65691;SDS011;52411;52.716;6.696;2023-01-24T16:28:59;27.73;;;13.95;;
65691;SDS011;52411;52.716;6.696;2023-01-24T16:31:24;24.13;;;13.80;;
65691;SDS011;52411;52.716;6.696;2023-01-24T16:33:50;26.38;;;13.65;;
65691;SDS011;52411;52.716;6.696;2023-01-24T16:36:16;24.05;;;13.70;;
65691;SDS011;52411;52.716;6.696;2023-01-24T16:38:42;26.25;;;13.60;;
65691;SDS011;52411;52.716;6.696;2023-01-24T16:41:11;26.23;;;13.38;;
65691;SDS011;52411;52.716;6.696;2023-01-24T16:43:38;22.60;;;12.82;;
65691;SDS011;52411;52.716;6.696;2023-01-24T16:46:13;25.50;;;13.25;;
65691;SDS011;52411;52.716;6.696;2023-01-24T16:48:42;26.73;;;14.50;;
65691;SDS011;52411;52.716;6.696;2023-01-24T16:51:11;32.33;;;15.70;;
65691;SDS011;52411;52.716;6.696;2023-01-24T16:53:38;29.42;;;15.82;;
65691;SDS011;52411;52.716;6.696;2023-01-24T16:56:04;28.85;;;15.88;;
65691;SDS011;52411;52.716;6.696;2023-01-24T16:58:30;28.85;;;15.73;;
65691;SDS011;52411;52.716;6.696;2023-01-24T17:00:56;28.70;;;15.95;;
65691;SDS011;52411;52.716;6.696;2023-01-24T17:03:21;31.48;;;16.88;;
65691;SDS011;52411;52.716;6.696;2023-01-24T17:05:47;30.42;;;16.27;;
65691;SDS011;52411;52.716;6.696;2023-01-24T17:08:13;34.90;;;18.55;;
65691;SDS011;52411;52.716;6.696;2023-01-24T17:10:39;31.55;;;17.45;;
65691;SDS011;52411;52.716;6.696;2023-01-24T17:13:06;33.65;;;17.73;;
65691;SDS011;52411;52.716;6.696;2023-01-24T17:15:38;35.53;;;18.48;;
65691;SDS011;52411;52.716;6.696;2023-01-24T17:18:05;36.10;;;19.42;;
65691;SDS011;52411;52.716;6.696;2023-01-24T17:20:31;34.05;;;18.45;;
65691;SDS011;52411;52.716;6.696;2023-01-24T17:22:58;35.50;;;18.85;;
65691;SDS011;52411;52.716;6.696;2023-01-24T17:25:30;38.60;;;20.80;;
65691;SDS011;52411;52.716;6.696;2023-01-24T17:27:56;41.33;;;21.00;;
65691;SDS011;52411;52.716;6.696;2023-01-24T17:30:22;43.70;;;22.35;;
65691;SDS011;52411;52.716;6.696;2023-01-24T17:32:47;43.95;;;23.23;;
65691;SDS011;52411;52.716;6.696;2023-01-24T17:35:13;47.83;;;23.63;;
65691;SDS011;52411;52.716;6.696;2023-01-24T17:37:39;48.95;;;25.38;;